createdAt,value
2019-01-12T00:01:28.579Z,102115.17
2019-01-12T00:03:56.952Z,102111.53
2019-01-12T00:06:25.203Z,102110.81
2019-01-12T00:08:53.615Z,102107.83
2019-01-12T00:11:22.061Z,102101.63
2019-01-12T00:13:50.506Z,102101.63
2019-01-12T00:16:18.851Z,102103.36
2019-01-12T00:18:47.257Z,102105.59
2019-01-12T00:21:15.733Z,102103.92
2019-01-12T00:23:44.176Z,102097.42
2019-01-12T00:26:12.614Z,102098.77
2019-01-12T00:28:41.001Z,102096.91
2019-01-12T00:31:09.352Z,102100.73
2019-01-12T00:33:37.798Z,102094.22
2019-01-12T00:36:06.168Z,102099.27
2019-01-12T00:38:34.509Z,102087.18
2019-01-12T00:41:02.997Z,102087.69
2019-01-12T00:43:31.305Z,102087.52
2019-01-12T00:45:59.645Z,102088.20
2019-01-12T00:48:28.073Z,102088.34
2019-01-12T00:50:56.541Z,102087.30
2019-01-12T00:53:24.939Z,102084.83
2019-01-12T00:55:53.335Z,102089.69
2019-01-12T00:58:21.750Z,102082.44
2019-01-12T01:00:50.223Z,102080.59
2019-01-12T01:03:18.659Z,102083.09
2019-01-12T01:05:47.114Z,102076.05
2019-01-12T01:08:15.375Z,102077.72
2019-01-12T01:10:43.948Z,102074.20
2019-01-12T01:13:12.457Z,102071.84
2019-01-12T01:15:40.893Z,102069.97
2019-01-12T01:18:09.193Z,102070.69
2019-01-12T01:20:37.608Z,102067.61
2019-01-12T01:23:06.053Z,101988.07
2019-01-12T01:25:34.590Z,102068.21
2019-01-12T01:28:02.968Z,102067.87
2019-01-12T01:30:31.460Z,102072.53
2019-01-12T01:32:59.809Z,102069.22
2019-01-12T01:35:28.337Z,102064.87
2019-01-12T01:37:56.677Z,102070.23
2019-01-12T01:40:25.227Z,102067.87
2019-01-12T01:42:53.629Z,102062.51
2019-01-12T01:45:21.989Z,102066.09
2019-01-12T01:47:50.322Z,102064.87
2019-01-12T01:50:18.834Z,102058.88
2019-01-12T01:52:48.363Z,102061.49
2019-01-12T01:55:17.315Z,102056.93
2019-01-12T01:57:45.613Z,102058.09
2019-01-12T02:00:16.703Z,102055.91
2019-01-12T02:02:45.271Z,102050.75
2019-01-12T02:05:13.540Z,102045.89
2019-01-12T02:07:41.815Z,102041.53
2019-01-12T02:10:13.521Z,102042.38
2019-01-12T02:12:41.831Z,102040.70
2019-01-12T02:15:12.768Z,102043.59
2019-01-12T02:17:41.163Z,102039.69
2019-01-12T02:20:09.769Z,102041.41
2019-01-12T02:22:38.293Z,102036.23
2019-01-12T02:25:09.763Z,102023.73
2019-01-12T02:27:38.204Z,102021.61
2019-01-12T02:30:09.852Z,102021.28
2019-01-12T02:32:38.283Z,102024.69
2019-01-12T02:35:06.667Z,102020.84
2019-01-12T02:37:35.024Z,102024.96
2019-01-12T02:40:04.747Z,102022.39
2019-01-12T02:42:33.129Z,102013.51
2019-01-12T02:45:01.646Z,102006.13
2019-01-12T02:47:29.889Z,102005.39
2019-01-12T02:49:58.331Z,102001.03
2019-01-12T02:52:26.828Z,102002.88
2019-01-12T02:54:55.290Z,102002.05
2019-01-12T02:57:23.726Z,101997.91
2019-01-12T02:59:52.279Z,101995.73
2019-01-12T03:02:20.661Z,101994.59
2019-01-12T03:04:49.077Z,101989.23
2019-01-12T03:07:17.448Z,101988.39
2019-01-12T03:09:45.805Z,101990.75
2019-01-12T03:12:14.203Z,101983.86
2019-01-12T03:14:42.641Z,101983.36
2019-01-12T03:17:11.091Z,101984.76
2019-01-12T03:19:39.604Z,101978.49
2019-01-12T03:22:07.962Z,101975.69
2019-01-12T03:24:36.419Z,101978.05
2019-01-12T03:27:04.950Z,101979.06
2019-01-12T03:29:33.223Z,101978.67
2019-01-12T03:32:01.792Z,101976.20
2019-01-12T03:34:30.095Z,101970.50
2019-01-12T03:36:58.574Z,101972.50
2019-01-12T03:39:26.935Z,101970.71
2019-01-12T03:41:55.276Z,101970.20
2019-01-12T03:44:23.879Z,101965.23
2019-01-12T03:46:52.137Z,101965.34
2019-01-12T03:49:20.574Z,101961.83
2019-01-12T03:51:49.018Z,101966.36
2019-01-12T03:54:17.283Z,101960.81
2019-01-12T03:56:45.602Z,101952.44
2019-01-12T03:59:14.012Z,101953.77
2019-01-12T04:01:42.413Z,101951.09
2019-01-12T04:04:11.114Z,101953.56
2019-01-12T04:06:39.615Z,101949.63
2019-01-12T04:09:08.703Z,101945.84
2019-01-12T04:11:37.112Z,101943.76
2019-01-12T04:14:05.542Z,101944.05
2019-01-12T04:16:33.971Z,101938.90
2019-01-12T04:19:02.451Z,101943.11
2019-01-12T04:21:30.744Z,101939.84
2019-01-12T04:23:59.105Z,101938.30
2019-01-12T04:26:27.637Z,101934.92
2019-01-12T04:28:55.890Z,101935.61
2019-01-12T04:31:24.333Z,101925.64
2019-01-12T04:33:52.813Z,101918.09
2019-01-12T04:36:21.276Z,101932.63
2019-01-12T04:38:49.661Z,101929.80
2019-01-12T04:41:18.004Z,101926.70
2019-01-12T04:43:46.503Z,101923.25
2019-01-12T04:46:14.886Z,101920.69
2019-01-12T04:48:43.379Z,101922.23
2019-01-12T04:51:11.665Z,101921.13
2019-01-12T04:53:39.984Z,101917.94
2019-01-12T04:56:08.534Z,101913.28
2019-01-12T04:58:36.897Z,101916.59
2019-01-12T05:01:05.384Z,101910.99
2019-01-12T05:03:33.693Z,101839.17
2019-01-12T05:06:01.973Z,101904.41
2019-01-12T05:08:30.441Z,101893.55
2019-01-12T05:10:58.787Z,101889.70
2019-01-12T05:13:27.219Z,101894.45
2019-01-12T05:15:55.680Z,101885.56
2019-01-12T05:18:23.974Z,101874.63
2019-01-12T05:20:52.515Z,101874.63
2019-01-12T05:23:20.783Z,101868.23
2019-01-12T05:25:49.490Z,101868.75
2019-01-12T05:28:18.315Z,101872.59
2019-01-12T05:30:46.933Z,101864.22
2019-01-12T05:33:15.408Z,101862.16
2019-01-12T05:35:43.959Z,101860.70
2019-01-12T05:38:12.326Z,101857.00
2019-01-12T05:40:40.848Z,101853.59
2019-01-12T05:43:09.130Z,101852.64
2019-01-12T05:45:37.461Z,101850.61
2019-01-12T05:48:05.987Z,101845.94
2019-01-12T05:50:34.450Z,101849.45
2019-01-12T05:53:02.786Z,101843.47
2019-01-12T05:55:31.170Z,101838.21
2019-01-12T05:57:59.649Z,101832.63
2019-01-12T06:00:28.108Z,101829.55
2019-01-12T06:02:56.620Z,101819.22
2019-01-12T06:05:24.905Z,101817.97
2019-01-12T06:07:59.170Z,101807.61
2019-01-12T06:10:33.667Z,101805.69
2019-01-12T06:13:09.449Z,101796.69
2019-01-12T06:15:39.592Z,101805.39
2019-01-12T06:18:09.324Z,101801.05
2019-01-12T06:20:37.997Z,101796.51
2019-01-12T06:23:06.651Z,101790.56
2019-01-12T06:25:37.275Z,101789.41
2019-01-12T06:28:05.911Z,101788.39
2019-01-12T06:30:34.581Z,101777.15
2019-01-12T06:33:03.424Z,101770.30
2019-01-12T06:35:32.817Z,101763.98
2019-01-12T06:38:02.963Z,101767.00
2019-01-12T06:40:32.162Z,101762.64
2019-01-12T06:43:00.591Z,101760.29
2019-01-12T06:45:29.232Z,101750.38
2019-01-12T06:47:57.891Z,101743.10
2019-01-12T06:50:26.475Z,101749.66
2019-01-12T06:52:55.230Z,101747.63
2019-01-12T06:55:24.003Z,101743.28
2019-01-12T06:57:52.433Z,101737.20
2019-01-12T07:00:21.531Z,101739.37
2019-01-12T07:02:50.144Z,101731.72
2019-01-12T07:05:19.568Z,101727.63
2019-01-12T07:07:48.054Z,101732.30
2019-01-12T07:10:16.525Z,101723.23
2019-01-12T07:12:45.072Z,101712.54
2019-01-12T07:15:14.514Z,101712.25
2019-01-12T07:17:42.827Z,101708.00
2019-01-12T07:20:14.569Z,101704.81
2019-01-12T07:22:52.757Z,101713.19
2019-01-12T07:25:21.565Z,101706.30
2019-01-12T07:27:49.992Z,101705.46
2019-01-12T07:30:20.983Z,101699.91
2019-01-12T07:32:49.390Z,101697.78
2019-01-12T07:35:17.935Z,101692.63
2019-01-12T07:37:46.350Z,101699.77
2019-01-12T07:40:15.618Z,101694.22
2019-01-12T07:42:44.028Z,101699.40
2019-01-12T07:45:12.500Z,101695.56
2019-01-12T07:47:40.928Z,101693.39
2019-01-12T07:50:11.983Z,101680.80
2019-01-12T07:52:40.475Z,101690.70
2019-01-12T07:55:09.624Z,101688.45
2019-01-12T07:57:39.126Z,101682.58
2019-01-12T08:00:13.366Z,101668.65
2019-01-12T08:02:41.944Z,101679.57
2019-01-12T08:05:10.495Z,101681.34
2019-01-12T08:07:38.890Z,101685.88
2019-01-12T08:10:13.635Z,101694.17
2019-01-12T08:12:42.155Z,101702.51
2019-01-12T08:15:10.494Z,101696.20
2019-01-12T08:17:39.009Z,101687.05
2019-01-12T08:20:10.104Z,101656.98
2019-01-12T08:22:38.456Z,101661.23
2019-01-12T08:25:10.343Z,101644.73
2019-01-12T08:27:38.913Z,101644.91
2019-01-12T08:30:14.334Z,101640.09
2019-01-12T08:32:48.127Z,101626.33
2019-01-12T08:35:18.006Z,101624.26
2019-01-12T08:37:47.263Z,101622.41
2019-01-12T08:40:26.146Z,101624.91
2019-01-12T08:42:56.471Z,101625.53
2019-01-12T08:45:29.210Z,101612.11
2019-01-12T08:47:58.165Z,101610.78
2019-01-12T08:50:26.784Z,101607.36
2019-01-12T08:52:55.235Z,101593.86
2019-01-12T08:55:29.652Z,101577.44
2019-01-12T08:58:01.523Z,101573.91
2019-01-12T09:00:30.425Z,101573.73
2019-01-12T09:03:00.820Z,101584.16
2019-01-12T09:05:29.388Z,101575.77
2019-01-12T09:07:58.451Z,101574.44
2019-01-12T09:10:26.943Z,101581.56
2019-01-12T09:12:56.289Z,101576.51
2019-01-12T09:15:26.114Z,101569.80
2019-01-12T09:17:57.049Z,101546.56
2019-01-12T09:20:29.692Z,101542.02
2019-01-12T09:23:02.089Z,101536.45
2019-01-12T09:25:35.080Z,101534.28
2019-01-12T09:28:10.461Z,101527.47
2019-01-12T09:30:48.420Z,101510.44
2019-01-12T09:33:13.752Z,101515.58
2019-01-12T09:35:42.292Z,101509.52
2019-01-12T09:38:10.943Z,101510.86
2019-01-12T09:40:39.468Z,101512.48
2019-01-12T09:43:07.880Z,101496.19
2019-01-12T09:45:36.535Z,101495.97
2019-01-12T09:48:04.962Z,101487.91
2019-01-12T09:50:33.397Z,101481.30
2019-01-12T09:53:01.886Z,101427.02
2019-01-12T09:55:30.551Z,101475.13
2019-01-12T09:57:59.006Z,101474.08
2019-01-12T10:00:27.400Z,101476.77
2019-01-12T10:02:55.878Z,101473.56
2019-01-12T10:05:24.319Z,101476.57
2019-01-12T10:07:52.916Z,101470.28
2019-01-12T10:10:21.610Z,101469.64
2019-01-12T10:12:50.061Z,101468.11
2019-01-12T10:15:18.473Z,101464.39
2019-01-12T10:17:46.972Z,101457.27
2019-01-12T10:20:18.980Z,101453.75
2019-01-12T10:23:05.880Z,101447.97
2019-01-12T10:25:52.646Z,101442.28
2019-01-12T10:28:27.092Z,101437.00
2019-01-12T10:30:55.610Z,101425.76
2019-01-12T10:33:23.899Z,101422.37
2019-01-12T10:35:52.558Z,101415.52
2019-01-12T10:38:20.882Z,101401.91
2019-01-12T10:40:49.260Z,101401.16
2019-01-12T10:43:17.606Z,101396.11
2019-01-12T10:45:46.008Z,101383.52
2019-01-12T10:48:14.336Z,101386.29
2019-01-12T10:50:42.925Z,101380.78
2019-01-12T10:53:11.589Z,101370.45
2019-01-12T10:55:39.999Z,101369.73
2019-01-12T10:58:08.375Z,101370.52
2019-01-12T11:00:37.918Z,101218.64
2019-01-12T11:03:06.707Z,101348.17
2019-01-12T11:05:36.001Z,101350.43
2019-01-12T11:08:04.537Z,101340.40
2019-01-12T11:10:34.395Z,101340.66
2019-01-12T11:13:02.954Z,101336.54
2019-01-12T11:15:32.094Z,101329.11
2019-01-12T11:18:01.155Z,101321.56
2019-01-12T11:20:29.866Z,101313.16
2019-01-12T11:22:59.062Z,101299.13
2019-01-12T11:25:28.325Z,101308.33
2019-01-12T11:27:56.651Z,101292.45
2019-01-12T11:30:26.597Z,101304.10
2019-01-12T11:32:56.282Z,101293.36
2019-01-12T11:35:27.597Z,101295.61
2019-01-12T11:37:55.989Z,101222.80
2019-01-12T11:40:24.938Z,101278.82
2019-01-12T11:42:53.509Z,101270.33
2019-01-12T11:45:21.806Z,101267.13
2019-01-12T11:47:50.139Z,101254.83
2019-01-12T11:50:18.634Z,101245.50
2019-01-12T11:52:47.075Z,101254.16
2019-01-12T11:55:17.378Z,101253.64
2019-01-12T11:57:45.785Z,101251.03
2019-01-12T12:00:25.705Z,101241.43
2019-01-12T12:02:54.508Z,101233.44
2019-01-12T12:05:22.832Z,101228.66
2019-01-12T12:07:51.387Z,101231.73
2019-01-12T12:10:20.035Z,101241.73
2019-01-12T12:12:48.385Z,101238.84
2019-01-12T12:15:19.974Z,101231.17
2019-01-12T12:17:51.978Z,101234.96
2019-01-12T12:20:31.494Z,101221.00
2019-01-12T12:23:12.882Z,101225.89
2019-01-12T12:25:51.110Z,101220.30
2019-01-12T12:28:33.654Z,101205.59
2019-01-12T12:31:03.111Z,101206.48
2019-01-12T12:33:31.436Z,101207.01
2019-01-12T12:35:59.979Z,101206.63
2019-01-12T12:38:28.280Z,101206.78
2019-01-12T12:40:56.578Z,101188.85
2019-01-12T12:43:24.969Z,101182.81
2019-01-12T12:45:53.281Z,101178.12
2019-01-12T12:48:21.573Z,101184.61
2019-01-12T12:50:49.993Z,101179.55
2019-01-12T12:53:18.917Z,101159.37
2019-01-12T12:55:47.576Z,101162.19
2019-01-12T12:58:16.025Z,101156.05
2019-01-12T13:00:44.999Z,101148.08
2019-01-12T13:03:14.274Z,101142.15
2019-01-12T13:05:43.632Z,101131.56
2019-01-12T13:08:13.529Z,101137.98
2019-01-12T13:10:42.700Z,101128.11
2019-01-12T13:13:11.505Z,101126.33
2019-01-12T13:15:40.245Z,101122.36
2019-01-12T13:18:09.125Z,101121.08
2019-01-12T13:20:37.584Z,101118.39
2019-01-12T13:23:06.378Z,101116.59
2019-01-12T13:25:34.728Z,101114.20
2019-01-12T13:28:03.031Z,101114.52
2019-01-12T13:30:31.914Z,101109.72
2019-01-12T13:33:00.461Z,101100.61
2019-01-12T13:35:29.117Z,101105.59
2019-01-12T13:37:58.279Z,101102.97
2019-01-12T13:40:27.116Z,101101.69
2019-01-12T13:42:55.893Z,101013.61
2019-01-12T13:45:24.386Z,101089.22
2019-01-12T13:47:53.376Z,101082.30
2019-01-12T13:50:24.326Z,101078.52
2019-01-12T13:52:52.984Z,101082.09
2019-01-12T13:55:21.541Z,101072.89
2019-01-12T13:57:50.122Z,101078.27
2019-01-12T14:00:24.873Z,101075.95
2019-01-12T14:02:53.599Z,101068.64
2019-01-12T14:05:22.095Z,101061.72
2019-01-12T14:07:56.249Z,101059.86
2019-01-12T14:10:21.257Z,101068.45
2019-01-12T14:12:50.170Z,101066.31
2019-01-12T14:15:20.729Z,101062.42
2019-01-12T14:18:03.945Z,101071.08
2019-01-12T14:20:37.954Z,101072.22
2019-01-12T14:23:06.835Z,101068.91
2019-01-12T14:25:35.751Z,101082.09
2019-01-12T14:28:04.983Z,101081.02
2019-01-12T14:30:34.607Z,101083.59
2019-01-12T14:33:03.549Z,101084.11
2019-01-12T14:35:32.037Z,101087.32
2019-01-12T14:38:00.601Z,101091.67
2019-01-12T14:40:30.614Z,101083.28
2019-01-12T14:43:05.830Z,101085.33
2019-01-12T14:45:36.186Z,101079.27
2019-01-12T14:48:07.900Z,101083.19
2019-01-12T14:50:37.570Z,101087.09
2019-01-12T14:53:07.921Z,101079.69
2019-01-12T14:55:37.895Z,101073.94
2019-01-12T14:58:06.594Z,101073.35
2019-01-12T15:00:36.085Z,101074.33
2019-01-12T15:03:05.836Z,101084.13
2019-01-12T15:05:36.146Z,101111.30
2019-01-12T15:08:06.056Z,101088.61
2019-01-12T15:10:34.686Z,101086.75
2019-01-12T15:13:03.658Z,101083.23
2019-01-12T15:15:32.375Z,101086.59
2019-01-12T15:18:01.224Z,101089.58
2019-01-12T15:20:30.315Z,101090.93
2019-01-12T15:23:00.448Z,101089.12
2019-01-12T15:25:30.301Z,101085.09
2019-01-12T15:28:00.246Z,101085.41
2019-01-12T15:30:30.484Z,101068.51
2019-01-12T15:32:59.372Z,101059.17
2019-01-12T15:35:31.715Z,101059.17
2019-01-12T15:38:01.971Z,101049.24
2019-01-12T15:40:31.719Z,101037.58
2019-01-12T15:43:01.384Z,101038.62
2019-01-12T15:45:31.691Z,101028.56
2019-01-12T15:48:01.208Z,101040.59
2019-01-12T15:50:29.868Z,101043.43
2019-01-12T15:52:58.903Z,101033.87
2019-01-12T15:55:28.130Z,101034.60
2019-01-12T15:57:57.927Z,101034.78
2019-01-12T16:00:28.690Z,101019.53
2019-01-12T16:02:57.790Z,101030.11
2019-01-12T16:05:27.587Z,101039.91
2019-01-12T16:07:57.004Z,101040.16
2019-01-12T16:10:33.758Z,101033.25
2019-01-12T16:13:07.302Z,101039.39
2019-01-12T16:15:45.312Z,101037.02
2019-01-12T16:18:17.409Z,101034.02
2019-01-12T16:20:46.827Z,101035.05
2019-01-12T16:23:18.756Z,101022.12
2019-01-12T16:25:47.254Z,101022.00
2019-01-12T16:28:23.021Z,100936.80
2019-01-12T16:30:47.882Z,101016.63
2019-01-12T16:33:16.458Z,101020.44
2019-01-12T16:35:45.974Z,101012.28
2019-01-12T16:38:15.916Z,101017.38
2019-01-12T16:40:44.937Z,101027.06
2019-01-12T16:43:13.300Z,101018.79
2019-01-12T16:45:42.510Z,101023.86
2019-01-12T16:48:10.870Z,101021.34
2019-01-12T16:50:39.265Z,101016.55
2019-01-12T16:53:07.843Z,101016.63
2019-01-12T16:55:36.279Z,101011.34
2019-01-12T16:58:04.896Z,101007.31
2019-01-12T17:00:33.310Z,101009.41
2019-01-12T17:03:01.830Z,101012.38
2019-01-12T17:05:30.383Z,101016.66
2019-01-12T17:07:58.811Z,101017.30
2019-01-12T17:10:27.148Z,101015.37
2019-01-12T17:12:55.588Z,101019.02
2019-01-12T17:15:23.933Z,101022.47
2019-01-12T17:17:52.213Z,101023.81
2019-01-12T17:20:26.720Z,101023.87
2019-01-12T17:22:58.342Z,101020.22
2019-01-12T17:25:26.907Z,101027.70
2019-01-12T17:27:55.451Z,101030.84
2019-01-12T17:30:26.976Z,101029.26
2019-01-12T17:32:55.406Z,101045.38
2019-01-12T17:35:23.703Z,101039.19
2019-01-12T17:37:52.045Z,101043.39
2019-01-12T17:40:20.462Z,101034.56
2019-01-12T17:42:48.815Z,101033.22
2019-01-12T17:45:24.895Z,101035.09
2019-01-12T17:47:53.236Z,101033.67
2019-01-12T17:50:24.088Z,101035.33
2019-01-12T17:52:52.439Z,101028.81
2019-01-12T17:55:24.016Z,101041.80
2019-01-12T17:57:52.457Z,101035.60
2019-01-12T18:00:24.538Z,101039.26
2019-01-12T18:02:53.168Z,101026.13
2019-01-12T18:05:21.740Z,101035.33
2019-01-12T18:07:50.184Z,101037.02
2019-01-12T18:10:18.813Z,101019.03
2019-01-12T18:13:02.342Z,101031.36
2019-01-12T18:15:38.816Z,101022.92
2019-01-12T18:18:08.177Z,101029.41
2019-01-12T18:20:36.747Z,101017.24
2019-01-12T18:23:05.207Z,101021.58
2019-01-12T18:25:33.886Z,101020.55
2019-01-12T18:28:03.081Z,101013.28
2019-01-12T18:30:31.832Z,101021.34
2019-01-12T18:33:00.585Z,101026.27
2019-01-12T18:35:29.251Z,101025.23
2019-01-12T18:37:57.943Z,101014.11
2019-01-12T18:40:26.353Z,101017.03
2019-01-12T18:42:54.804Z,101010.69
2019-01-12T18:45:23.163Z,101003.88
2019-01-12T18:47:51.736Z,100999.33
2019-01-12T18:50:23.465Z,101001.95
2019-01-12T18:52:51.954Z,101005.33
2019-01-12T18:55:20.242Z,101005.84
2019-01-12T18:57:48.635Z,101006.05
2019-01-12T19:00:20.276Z,101003.81
2019-01-12T19:02:48.827Z,101010.39
2019-01-12T19:05:17.362Z,101010.91
2019-01-12T19:07:45.847Z,101011.56
2019-01-12T19:10:14.627Z,101010.84
2019-01-12T19:12:43.160Z,101004.70
2019-01-12T19:15:20.255Z,100999.13
2019-01-12T19:17:48.595Z,100997.02
2019-01-12T19:20:16.911Z,101000.54
2019-01-12T19:22:45.519Z,101000.91
2019-01-12T19:25:15.257Z,100995.30
2019-01-12T19:27:43.704Z,100992.55
2019-01-12T19:30:20.557Z,100995.23
2019-01-12T19:32:49.164Z,101019.93
2019-01-12T19:35:17.528Z,100993.06
2019-01-12T19:37:46.045Z,100994.55
2019-01-12T19:40:17.492Z,100995.23
2019-01-12T19:42:45.994Z,100993.13
2019-01-12T19:45:16.322Z,100991.78
2019-01-12T19:47:44.748Z,100989.27
2019-01-12T19:50:16.990Z,100986.65
2019-01-12T19:52:45.507Z,100985.38
2019-01-12T19:55:14.199Z,100985.23
2019-01-12T19:57:43.122Z,100971.48
2019-01-12T20:00:15.621Z,100977.31
2019-01-12T20:02:44.087Z,100970.28
2019-01-12T20:05:14.281Z,100973.73
2019-01-12T20:07:43.625Z,100979.34
2019-01-12T20:10:14.759Z,100983.89
2019-01-12T20:12:43.468Z,100963.95
2019-01-12T20:15:20.927Z,100968.59
2019-01-12T20:17:50.712Z,100964.26
2019-01-12T20:20:22.196Z,100964.84
2019-01-12T20:22:52.356Z,100964.77
2019-01-12T20:25:28.580Z,100975.83
2019-01-12T20:27:57.413Z,100971.05
2019-01-12T20:30:34.906Z,100971.35
2019-01-12T20:33:19.450Z,100973.14
2019-01-12T20:35:54.947Z,100974.48
2019-01-12T20:38:26.963Z,100968.59
2019-01-12T20:41:01.881Z,100960.30
2019-01-12T20:43:33.492Z,100969.70
2019-01-12T20:46:20.838Z,100965.09
2019-01-12T20:48:52.507Z,100970.15
2019-01-12T20:51:29.776Z,100958.64
2019-01-12T20:54:01.445Z,100957.84
2019-01-12T20:56:33.018Z,100956.50
2019-01-12T20:59:14.280Z,100955.44
2019-01-12T21:02:00.436Z,100951.65
2019-01-12T21:04:33.137Z,100949.17
2019-01-12T21:07:07.575Z,100964.92
2019-01-12T21:10:10.916Z,100959.64
2019-01-12T21:12:54.267Z,100972.53
2019-01-12T21:15:25.998Z,100951.65
2019-01-12T21:17:54.339Z,100952.98
2019-01-12T21:20:22.796Z,100948.66
2019-01-12T21:22:52.933Z,100959.09
2019-01-12T21:25:22.296Z,100957.67
2019-01-12T21:27:53.075Z,100965.22
2019-01-12T21:30:21.564Z,100959.18
2019-01-12T21:32:50.049Z,100955.48
2019-01-12T21:35:18.567Z,100943.12
2019-01-12T21:37:46.984Z,100953.56
2019-01-12T21:40:16.384Z,100949.02
2019-01-12T21:42:44.790Z,100946.63
2019-01-12T21:45:14.916Z,100945.87
2019-01-12T21:47:43.291Z,100948.92
2019-01-12T21:50:16.830Z,100952.72
2019-01-12T21:52:45.948Z,100960.33
2019-01-12T21:55:16.111Z,100957.64
2019-01-12T21:57:46.233Z,100957.55
2019-01-12T22:00:18.496Z,100959.66
2019-01-12T22:02:47.043Z,100956.00
2019-01-12T22:05:17.714Z,100954.34
2019-01-12T22:07:47.754Z,100960.03
2019-01-12T22:10:19.594Z,100958.17
2019-01-12T22:12:55.153Z,100950.16
2019-01-12T22:15:24.467Z,100963.09
2019-01-12T22:17:52.891Z,100952.03
2019-01-12T22:20:23.253Z,100947.02
2019-01-12T22:22:53.179Z,100945.61
2019-01-12T22:25:23.150Z,100942.62
2019-01-12T22:27:51.526Z,100939.47
2019-01-12T22:30:19.990Z,100937.36
2019-01-12T22:32:48.466Z,100938.77
2019-01-12T22:35:16.877Z,100936.91
2019-01-12T22:37:45.255Z,100930.70
2019-01-12T22:40:21.131Z,100934.67
2019-01-12T22:42:49.405Z,100937.09
2019-01-12T22:45:17.801Z,100932.88
2019-01-12T22:47:46.075Z,100930.48
2019-01-12T22:50:17.378Z,100934.12
2019-01-12T22:52:46.243Z,100923.00
2019-01-12T22:55:15.012Z,100926.58
2019-01-12T22:57:43.271Z,100918.51
2019-01-12T23:00:39.517Z,100916.64
2019-01-12T23:03:08.427Z,100911.27
2019-01-12T23:05:36.866Z,100913.44
2019-01-12T23:08:05.905Z,100914.48
2019-01-12T23:10:35.091Z,100908.36
2019-01-12T23:13:05.106Z,100910.50
2019-01-12T23:15:35.252Z,100913.55
2019-01-12T23:18:03.585Z,100915.51
2019-01-12T23:20:31.972Z,100916.03
2019-01-12T23:23:00.928Z,100924.62
2019-01-12T23:25:31.462Z,100914.95
2019-01-12T23:28:01.120Z,100910.86
2019-01-12T23:30:31.285Z,100917.07
2019-01-12T23:33:00.045Z,100920.59
2019-01-12T23:35:28.531Z,100926.17
2019-01-12T23:37:56.879Z,100920.00
2019-01-12T23:40:25.141Z,100828.77
2019-01-12T23:42:53.493Z,100914.53
2019-01-12T23:45:21.769Z,100915.27
2019-01-12T23:47:50.052Z,100918.78
2019-01-12T23:50:18.369Z,100919.09
2019-01-12T23:52:46.784Z,100918.94
2019-01-12T23:55:15.051Z,100915.14
2019-01-12T23:57:43.457Z,100919.18
